sensor_id;sensor_type;location;lat;lon;timestamp;temperature;humidity
44117;DHT22;29781;49.480;8.512;2023-07-29T00:00:43;19.40;99.90
44117;DHT22;29781;49.480;8.512;2023-07-29T00:03:09;19.40;99.90
44117;DHT22;29781;49.480;8.512;2023-07-29T00:05:35;19.40;99.90
44117;DHT22;29781;49.480;8.512;2023-07-29T00:08:00;19.40;99.90
44117;DHT22;29781;49.480;8.512;2023-07-29T00:10:26;19.30;99.90
44117;DHT22;29781;49.480;8.512;2023-07-29T00:12:52;19.30;99.90
44117;DHT22;29781;49.480;8.512;2023-07-29T00:15:18;19.30;99.90
44117;DHT22;29781;49.480;8.512;2023-07-29T00:17:43;19.30;99.90
44117;DHT22;29781;49.480;8.512;2023-07-29T00:20:09;19.40;99.90
44117;DHT22;29781;49.480;8.512;2023-07-29T00:22:34;19.40;99.90
44117;DHT22;29781;49.480;8.512;2023-07-29T00:25:00;19.40;99.90
44117;DHT22;29781;49.480;8.512;2023-07-29T00:27:25;19.40;99.90
44117;DHT22;29781;49.480;8.512;2023-07-29T00:29:51;19.30;99.90
44117;DHT22;29781;49.480;8.512;2023-07-29T00:32:17;19.40;99.90
44117;DHT22;29781;49.480;8.512;2023-07-29T00:34:43;19.40;99.90
44117;DHT22;29781;49.480;8.512;2023-07-29T00:37:09;19.40;99.90
44117;DHT22;29781;49.480;8.512;2023-07-29T00:39:36;19.30;99.90
44117;DHT22;29781;49.480;8.512;2023-07-29T00:42:02;19.30;99.90
44117;DHT22;29781;49.480;8.512;2023-07-29T00:44:28;19.30;99.90
44117;DHT22;29781;49.480;8.512;2023-07-29T00:46:54;19.30;99.90
44117;DHT22;29781;49.480;8.512;2023-07-29T00:49:20;19.30;99.90
44117;DHT22;29781;49.480;8.512;2023-07-29T00:51:46;19.30;99.90
44117;DHT22;29781;49.480;8.512;2023-07-29T00:54:13;19.30;99.90
44117;DHT22;29781;49.480;8.512;2023-07-29T00:56:39;19.20;99.90
44117;DHT22;29781;49.480;8.512;2023-07-29T00:59:05;19.30;99.90
44117;DHT22;29781;49.480;8.512;2023-07-29T01:01:31;19.20;99.90
44117;DHT22;29781;49.480;8.512;2023-07-29T01:03:57;19.20;99.90
44117;DHT22;29781;49.480;8.512;2023-07-29T01:06:50;19.30;99.90
44117;DHT22;29781;49.480;8.512;2023-07-29T01:09:46;19.30;99.90
44117;DHT22;29781;49.480;8.512;2023-07-29T01:17:56;19.30;99.90
44117;DHT22;29781;49.480;8.512;2023-07-29T01:20:25;19.30;99.90
44117;DHT22;29781;49.480;8.512;2023-07-29T01:22:50;19.40;99.90
44117;DHT22;29781;49.480;8.512;2023-07-29T01:25:16;19.30;99.90
44117;DHT22;29781;49.480;8.512;2023-07-29T01:27:44;19.40;99.90
44117;DHT22;29781;49.480;8.512;2023-07-29T01:30:10;19.30;99.90
44117;DHT22;29781;49.480;8.512;2023-07-29T01:35:24;19.10;99.90
44117;DHT22;29781;49.480;8.512;2023-07-29T01:37:55;19.10;99.90
44117;DHT22;29781;49.480;8.512;2023-07-29T01:40:23;19.20;99.90
44117;DHT22;29781;49.480;8.512;2023-07-29T01:42:51;19.30;99.90
44117;DHT22;29781;49.480;8.512;2023-07-29T01:45:16;19.30;99.90
44117;DHT22;29781;49.480;8.512;2023-07-29T01:47:42;19.30;99.90
44117;DHT22;29781;49.480;8.512;2023-07-29T01:50:08;19.30;99.90
44117;DHT22;29781;49.480;8.512;2023-07-29T01:52:34;19.20;99.90
44117;DHT22;29781;49.480;8.512;2023-07-29T01:55:00;19.20;99.90
44117;DHT22;29781;49.480;8.512;2023-07-29T01:57:26;19.20;99.90
44117;DHT22;29781;49.480;8.512;2023-07-29T01:59:51;19.20;99.90
44117;DHT22;29781;49.480;8.512;2023-07-29T02:02:17;19.20;99.90
44117;DHT22;29781;49.480;8.512;2023-07-29T02:04:42;19.20;99.90
44117;DHT22;29781;49.480;8.512;2023-07-29T02:07:08;19.20;99.90
44117;DHT22;29781;49.480;8.512;2023-07-29T02:09:33;19.20;99.90
44117;DHT22;29781;49.480;8.512;2023-07-29T02:11:59;19.30;99.90
44117;DHT22;29781;49.480;8.512;2023-07-29T02:14:24;19.30;99.90
44117;DHT22;29781;49.480;8.512;2023-07-29T02:16:50;19.30;99.90
44117;DHT22;29781;49.480;8.512;2023-07-29T02:19:15;19.20;99.90
44117;DHT22;29781;49.480;8.512;2023-07-29T02:21:41;19.20;99.90
44117;DHT22;29781;49.480;8.512;2023-07-29T02:24:07;19.20;99.90
44117;DHT22;29781;49.480;8.512;2023-07-29T02:26:32;19.20;99.90
44117;DHT22;29781;49.480;8.512;2023-07-29T02:28:58;19.20;99.90
44117;DHT22;29781;49.480;8.512;2023-07-29T02:31:24;19.10;99.90
44117;DHT22;29781;49.480;8.512;2023-07-29T02:33:51;19.10;99.90
44117;DHT22;29781;49.480;8.512;2023-07-29T02:36:17;19.10;99.90
44117;DHT22;29781;49.480;8.512;2023-07-29T02:38:42;19.10;99.90
44117;DHT22;29781;49.480;8.512;2023-07-29T02:41:09;19.10;99.90
44117;DHT22;29781;49.480;8.512;2023-07-29T02:43:35;19.10;99.90
44117;DHT22;29781;49.480;8.512;2023-07-29T02:46:01;19.10;99.90
44117;DHT22;29781;49.480;8.512;2023-07-29T02:48:27;19.10;99.90
44117;DHT22;29781;49.480;8.512;2023-07-29T02:50:53;19.10;99.90
44117;DHT22;29781;49.480;8.512;2023-07-29T02:53:19;19.10;99.90
44117;DHT22;29781;49.480;8.512;2023-07-29T02:55:45;19.10;99.90
44117;DHT22;29781;49.480;8.512;2023-07-29T02:58:10;19.10;99.90
44117;DHT22;29781;49.480;8.512;2023-07-29T03:00:36;19.10;99.90
44117;DHT22;29781;49.480;8.512;2023-07-29T03:03:01;19.10;99.90
44117;DHT22;29781;49.480;8.512;2023-07-29T03:05:27;19.00;99.90
44117;DHT22;29781;49.480;8.512;2023-07-29T03:07:53;19.10;99.90
44117;DHT22;29781;49.480;8.512;2023-07-29T03:10:18;19.10;99.90
44117;DHT22;29781;49.480;8.512;2023-07-29T03:12:44;19.00;99.90
44117;DHT22;29781;49.480;8.512;2023-07-29T03:15:10;19.00;99.90
44117;DHT22;29781;49.480;8.512;2023-07-29T03:17:35;19.00;99.90
44117;DHT22;29781;49.480;8.512;2023-07-29T03:20:01;19.00;99.90
44117;DHT22;29781;49.480;8.512;2023-07-29T03:22:26;19.00;99.90
44117;DHT22;29781;49.480;8.512;2023-07-29T03:24:52;19.00;99.90
44117;DHT22;29781;49.480;8.512;2023-07-29T03:27:17;19.00;99.90
44117;DHT22;29781;49.480;8.512;2023-07-29T03:29:43;19.00;99.90
44117;DHT22;29781;49.480;8.512;2023-07-29T03:32:08;18.40;99.90
44117;DHT22;29781;49.480;8.512;2023-07-29T03:34:34;18.90;99.90
44117;DHT22;29781;49.480;8.512;2023-07-29T03:37:01;18.90;99.90
44117;DHT22;29781;49.480;8.512;2023-07-29T03:39:26;18.90;99.90
44117;DHT22;29781;49.480;8.512;2023-07-29T03:41:52;18.90;99.90
44117;DHT22;29781;49.480;8.512;2023-07-29T03:44:17;18.90;99.90
44117;DHT22;29781;49.480;8.512;2023-07-29T03:46:46;18.90;99.90
44117;DHT22;29781;49.480;8.512;2023-07-29T03:49:12;18.90;99.90
44117;DHT22;29781;49.480;8.512;2023-07-29T03:51:37;18.90;99.90
44117;DHT22;29781;49.480;8.512;2023-07-29T03:54:03;18.90;99.90
44117;DHT22;29781;49.480;8.512;2023-07-29T03:56:28;18.90;99.90
44117;DHT22;29781;49.480;8.512;2023-07-29T03:59:02;19.00;99.90
44117;DHT22;29781;49.480;8.512;2023-07-29T04:01:28;19.00;99.90
44117;DHT22;29781;49.480;8.512;2023-07-29T04:03:53;19.00;99.90
44117;DHT22;29781;49.480;8.512;2023-07-29T04:06:20;19.00;99.90
44117;DHT22;29781;49.480;8.512;2023-07-29T04:08:45;19.00;99.90
44117;DHT22;29781;49.480;8.512;2023-07-29T04:11:11;18.90;99.90
44117;DHT22;29781;49.480;8.512;2023-07-29T04:13:36;18.90;99.90
44117;DHT22;29781;49.480;8.512;2023-07-29T04:16:03;18.90;99.90
44117;DHT22;29781;49.480;8.512;2023-07-29T04:18:29;18.90;99.90
44117;DHT22;29781;49.480;8.512;2023-07-29T04:20:54;18.90;99.90
44117;DHT22;29781;49.480;8.512;2023-07-29T04:23:20;19.00;99.90
44117;DHT22;29781;49.480;8.512;2023-07-29T04:25:45;19.00;99.90
44117;DHT22;29781;49.480;8.512;2023-07-29T04:28:11;19.00;99.90
44117;DHT22;29781;49.480;8.512;2023-07-29T04:30:36;19.00;99.90
44117;DHT22;29781;49.480;8.512;2023-07-29T04:33:02;19.00;99.90
44117;DHT22;29781;49.480;8.512;2023-07-29T04:35:28;19.00;99.90
44117;DHT22;29781;49.480;8.512;2023-07-29T04:37:53;18.90;99.90
44117;DHT22;29781;49.480;8.512;2023-07-29T04:40:19;18.90;99.90
44117;DHT22;29781;49.480;8.512;2023-07-29T04:42:44;18.90;99.90
44117;DHT22;29781;49.480;8.512;2023-07-29T04:45:10;19.00;99.90
44117;DHT22;29781;49.480;8.512;2023-07-29T04:47:36;18.90;99.90
44117;DHT22;29781;49.480;8.512;2023-07-29T04:50:02;19.00;99.90
44117;DHT22;29781;49.480;8.512;2023-07-29T04:52:27;18.90;99.90
44117;DHT22;29781;49.480;8.512;2023-07-29T04:54:53;18.90;99.90
44117;DHT22;29781;49.480;8.512;2023-07-29T04:57:18;18.90;99.90
44117;DHT22;29781;49.480;8.512;2023-07-29T04:59:44;18.90;99.90
44117;DHT22;29781;49.480;8.512;2023-07-29T05:02:09;18.90;99.90
44117;DHT22;29781;49.480;8.512;2023-07-29T05:04:35;18.90;99.90
44117;DHT22;29781;49.480;8.512;2023-07-29T05:07:00;18.90;99.90
44117;DHT22;29781;49.480;8.512;2023-07-29T05:09:26;18.90;99.90
44117;DHT22;29781;49.480;8.512;2023-07-29T05:11:51;19.00;99.90
44117;DHT22;29781;49.480;8.512;2023-07-29T05:14:17;19.00;99.90
44117;DHT22;29781;49.480;8.512;2023-07-29T05:16:43;19.00;99.90
44117;DHT22;29781;49.480;8.512;2023-07-29T05:19:09;19.00;99.90
44117;DHT22;29781;49.480;8.512;2023-07-29T05:21:36;19.10;99.90
44117;DHT22;29781;49.480;8.512;2023-07-29T05:24:02;19.10;99.90
44117;DHT22;29781;49.480;8.512;2023-07-29T05:26:27;19.00;99.90
44117;DHT22;29781;49.480;8.512;2023-07-29T05:28:53;19.10;99.90
44117;DHT22;29781;49.480;8.512;2023-07-29T05:31:19;19.10;99.90
44117;DHT22;29781;49.480;8.512;2023-07-29T05:33:44;19.10;99.90
44117;DHT22;29781;49.480;8.512;2023-07-29T05:36:10;19.20;99.90
44117;DHT22;29781;49.480;8.512;2023-07-29T05:38:35;19.30;99.90
44117;DHT22;29781;49.480;8.512;2023-07-29T05:41:01;19.30;99.90
44117;DHT22;29781;49.480;8.512;2023-07-29T05:43:27;19.40;99.90
44117;DHT22;29781;49.480;8.512;2023-07-29T05:45:53;19.30;99.90
44117;DHT22;29781;49.480;8.512;2023-07-29T05:48:19;19.40;99.90
44117;DHT22;29781;49.480;8.512;2023-07-29T05:50:45;19.40;99.90
44117;DHT22;29781;49.480;8.512;2023-07-29T05:53:10;19.40;99.90
44117;DHT22;29781;49.480;8.512;2023-07-29T05:55:36;19.50;99.90
44117;DHT22;29781;49.480;8.512;2023-07-29T05:58:01;19.50;99.90
44117;DHT22;29781;49.480;8.512;2023-07-29T06:00:27;19.50;99.90
44117;DHT22;29781;49.480;8.512;2023-07-29T06:02:52;19.50;99.90
44117;DHT22;29781;49.480;8.512;2023-07-29T06:05:18;19.50;99.90
44117;DHT22;29781;49.480;8.512;2023-07-29T06:07:43;19.50;99.90
44117;DHT22;29781;49.480;8.512;2023-07-29T06:10:14;19.50;99.90
44117;DHT22;29781;49.480;8.512;2023-07-29T06:12:43;19.60;99.90
44117;DHT22;29781;49.480;8.512;2023-07-29T06:15:09;19.60;99.90
44117;DHT22;29781;49.480;8.512;2023-07-29T06:17:34;19.70;99.90
44117;DHT22;29781;49.480;8.512;2023-07-29T06:20:00;19.70;99.90
44117;DHT22;29781;49.480;8.512;2023-07-29T06:22:25;19.60;99.90
44117;DHT22;29781;49.480;8.512;2023-07-29T06:24:51;19.60;99.90
44117;DHT22;29781;49.480;8.512;2023-07-29T06:27:16;19.60;99.90
44117;DHT22;29781;49.480;8.512;2023-07-29T06:29:42;19.70;99.90
44117;DHT22;29781;49.480;8.512;2023-07-29T06:32:07;19.70;99.90
44117;DHT22;29781;49.480;8.512;2023-07-29T06:34:33;19.80;99.90
44117;DHT22;29781;49.480;8.512;2023-07-29T06:36:58;19.80;99.90
44117;DHT22;29781;49.480;8.512;2023-07-29T06:39:24;19.80;99.90
44117;DHT22;29781;49.480;8.512;2023-07-29T06:41:49;19.90;99.90
44117;DHT22;29781;49.480;8.512;2023-07-29T06:44:15;19.90;99.90
44117;DHT22;29781;49.480;8.512;2023-07-29T06:46:41;19.90;99.90
44117;DHT22;29781;49.480;8.512;2023-07-29T06:49:06;20.00;99.90
44117;DHT22;29781;49.480;8.512;2023-07-29T06:51:32;20.00;99.90
44117;DHT22;29781;49.480;8.512;2023-07-29T06:54:00;20.00;99.90
44117;DHT22;29781;49.480;8.512;2023-07-29T06:56:26;20.10;99.90
44117;DHT22;29781;49.480;8.512;2023-07-29T06:58:52;20.20;99.90
44117;DHT22;29781;49.480;8.512;2023-07-29T07:01:17;20.20;99.90
44117;DHT22;29781;49.480;8.512;2023-07-29T07:03:43;20.30;99.90
44117;DHT22;29781;49.480;8.512;2023-07-29T07:06:08;20.40;99.90
44117;DHT22;29781;49.480;8.512;2023-07-29T07:08:34;20.50;99.90
44117;DHT22;29781;49.480;8.512;2023-07-29T07:10:59;20.50;99.90
44117;DHT22;29781;49.480;8.512;2023-07-29T07:13:25;20.50;99.90
44117;DHT22;29781;49.480;8.512;2023-07-29T07:15:50;20.60;99.90
44117;DHT22;29781;49.480;8.512;2023-07-29T07:18:16;20.60;99.90
44117;DHT22;29781;49.480;8.512;2023-07-29T07:20:41;20.70;99.90
44117;DHT22;29781;49.480;8.512;2023-07-29T07:23:07;20.80;99.90
44117;DHT22;29781;49.480;8.512;2023-07-29T07:25:36;20.80;99.90
44117;DHT22;29781;49.480;8.512;2023-07-29T07:28:02;20.90;99.90
44117;DHT22;29781;49.480;8.512;2023-07-29T07:30:27;20.90;99.90
44117;DHT22;29781;49.480;8.512;2023-07-29T07:32:53;20.90;99.90
44117;DHT22;29781;49.480;8.512;2023-07-29T07:35:18;20.90;99.90
44117;DHT22;29781;49.480;8.512;2023-07-29T07:37:44;20.90;99.90
44117;DHT22;29781;49.480;8.512;2023-07-29T07:40:10;20.90;99.90
44117;DHT22;29781;49.480;8.512;2023-07-29T07:42:36;21.00;99.90
44117;DHT22;29781;49.480;8.512;2023-07-29T07:45:03;21.00;99.90
44117;DHT22;29781;49.480;8.512;2023-07-29T07:47:28;21.00;99.90
44117;DHT22;29781;49.480;8.512;2023-07-29T07:49:54;21.00;99.90
44117;DHT22;29781;49.480;8.512;2023-07-29T07:52:19;21.00;99.90
44117;DHT22;29781;49.480;8.512;2023-07-29T07:54:45;21.00;99.90
44117;DHT22;29781;49.480;8.512;2023-07-29T07:57:10;21.10;99.90
44117;DHT22;29781;49.480;8.512;2023-07-29T07:59:36;21.10;99.90
44117;DHT22;29781;49.480;8.512;2023-07-29T08:02:01;21.20;99.90
44117;DHT22;29781;49.480;8.512;2023-07-29T08:04:27;21.20;99.90
44117;DHT22;29781;49.480;8.512;2023-07-29T08:06:53;21.20;99.90
44117;DHT22;29781;49.480;8.512;2023-07-29T08:09:19;21.20;99.90
44117;DHT22;29781;49.480;8.512;2023-07-29T08:11:45;21.20;99.90
44117;DHT22;29781;49.480;8.512;2023-07-29T08:14:10;21.10;99.90
44117;DHT22;29781;49.480;8.512;2023-07-29T08:16:36;21.10;99.90
44117;DHT22;29781;49.480;8.512;2023-07-29T08:19:01;21.10;99.90
44117;DHT22;29781;49.480;8.512;2023-07-29T08:21:27;20.80;99.90
44117;DHT22;29781;49.480;8.512;2023-07-29T08:23:52;20.80;99.90
44117;DHT22;29781;49.480;8.512;2023-07-29T08:26:18;20.90;99.90
44117;DHT22;29781;49.480;8.512;2023-07-29T08:28:43;20.90;99.90
44117;DHT22;29781;49.480;8.512;2023-07-29T08:31:09;20.90;99.90
44117;DHT22;29781;49.480;8.512;2023-07-29T08:33:34;20.90;99.90
44117;DHT22;29781;49.480;8.512;2023-07-29T08:36:00;21.00;99.90
44117;DHT22;29781;49.480;8.512;2023-07-29T08:38:26;21.00;99.90
44117;DHT22;29781;49.480;8.512;2023-07-29T08:43:28;21.10;99.90
44117;DHT22;29781;49.480;8.512;2023-07-29T08:45:54;21.20;99.90
44117;DHT22;29781;49.480;8.512;2023-07-29T08:48:41;21.30;99.90
44117;DHT22;29781;49.480;8.512;2023-07-29T08:51:08;21.50;99.90
44117;DHT22;29781;49.480;8.512;2023-07-29T08:53:34;21.60;99.90
44117;DHT22;29781;49.480;8.512;2023-07-29T08:56:01;21.70;99.90
44117;DHT22;29781;49.480;8.512;2023-07-29T08:58:27;21.60;99.90
44117;DHT22;29781;49.480;8.512;2023-07-29T09:00:53;21.80;99.90
44117;DHT22;29781;49.480;8.512;2023-07-29T09:03:19;21.90;99.90
44117;DHT22;29781;49.480;8.512;2023-07-29T09:05:45;22.00;99.90
44117;DHT22;29781;49.480;8.512;2023-07-29T09:08:11;22.30;99.90
44117;DHT22;29781;49.480;8.512;2023-07-29T09:10:37;22.60;99.90
44117;DHT22;29781;49.480;8.512;2023-07-29T09:13:04;22.80;99.90
44117;DHT22;29781;49.480;8.512;2023-07-29T09:15:30;23.10;99.90
44117;DHT22;29781;49.480;8.512;2023-07-29T09:17:57;23.00;99.90
44117;DHT22;29781;49.480;8.512;2023-07-29T09:20:29;22.90;99.90
44117;DHT22;29781;49.480;8.512;2023-07-29T09:22:57;22.70;99.90
44117;DHT22;29781;49.480;8.512;2023-07-29T09:25:27;22.70;99.90
44117;DHT22;29781;49.480;8.512;2023-07-29T09:27:59;22.60;99.90
44117;DHT22;29781;49.480;8.512;2023-07-29T09:30:25;22.60;99.90
44117;DHT22;29781;49.480;8.512;2023-07-29T09:32:58;22.80;99.90
44117;DHT22;29781;49.480;8.512;2023-07-29T09:35:26;23.00;99.90
44117;DHT22;29781;49.480;8.512;2023-07-29T09:37:51;23.20;99.90
44117;DHT22;29781;49.480;8.512;2023-07-29T09:40:17;23.40;99.90
44117;DHT22;29781;49.480;8.512;2023-07-29T09:43:09;23.50;99.90
44117;DHT22;29781;49.480;8.512;2023-07-29T09:45:36;23.70;99.90
44117;DHT22;29781;49.480;8.512;2023-07-29T09:48:02;24.10;99.90
44117;DHT22;29781;49.480;8.512;2023-07-29T09:50:28;24.50;99.90
44117;DHT22;29781;49.480;8.512;2023-07-29T09:52:55;24.50;99.90
44117;DHT22;29781;49.480;8.512;2023-07-29T09:55:24;24.30;99.90
44117;DHT22;29781;49.480;8.512;2023-07-29T09:57:56;24.10;99.90
44117;DHT22;29781;49.480;8.512;2023-07-29T10:00:23;24.20;99.90
44117;DHT22;29781;49.480;8.512;2023-07-29T10:02:48;24.10;99.90
44117;DHT22;29781;49.480;8.512;2023-07-29T10:05:15;24.00;99.90
44117;DHT22;29781;49.480;8.512;2023-07-29T10:07:40;23.90;99.90
44117;DHT22;29781;49.480;8.512;2023-07-29T10:10:07;23.70;99.90
44117;DHT22;29781;49.480;8.512;2023-07-29T10:12:34;23.60;99.90
44117;DHT22;29781;49.480;8.512;2023-07-29T10:15:02;23.70;99.90
44117;DHT22;29781;49.480;8.512;2023-07-29T10:17:29;23.70;99.90
44117;DHT22;29781;49.480;8.512;2023-07-29T10:19:56;23.80;99.90
44117;DHT22;29781;49.480;8.512;2023-07-29T10:22:25;23.70;99.90
44117;DHT22;29781;49.480;8.512;2023-07-29T10:24:56;23.70;99.90
44117;DHT22;29781;49.480;8.512;2023-07-29T10:27:25;23.80;99.90
44117;DHT22;29781;49.480;8.512;2023-07-29T10:29:52;23.90;99.90
44117;DHT22;29781;49.480;8.512;2023-07-29T10:32:24;23.90;99.90
44117;DHT22;29781;49.480;8.512;2023-07-29T10:34:50;24.20;99.90
44117;DHT22;29781;49.480;8.512;2023-07-29T10:37:16;24.30;99.90
44117;DHT22;29781;49.480;8.512;2023-07-29T10:39:55;24.40;99.90
44117;DHT22;29781;49.480;8.512;2023-07-29T10:42:21;24.40;99.90
44117;DHT22;29781;49.480;8.512;2023-07-29T10:44:52;24.40;99.90
44117;DHT22;29781;49.480;8.512;2023-07-29T10:47:18;24.40;99.90
44117;DHT22;29781;49.480;8.512;2023-07-29T10:49:46;24.40;99.90
44117;DHT22;29781;49.480;8.512;2023-07-29T10:52:15;24.40;99.90
44117;DHT22;29781;49.480;8.512;2023-07-29T10:54:46;24.40;99.90
44117;DHT22;29781;49.480;8.512;2023-07-29T10:57:16;24.40;99.90
44117;DHT22;29781;49.480;8.512;2023-07-29T10:59:56;24.40;99.90
44117;DHT22;29781;49.480;8.512;2023-07-29T11:02:31;24.40;99.90
44117;DHT22;29781;49.480;8.512;2023-07-29T11:04:58;24.60;99.90
44117;DHT22;29781;49.480;8.512;2023-07-29T11:07:25;24.90;99.90
44117;DHT22;29781;49.480;8.512;2023-07-29T11:10:03;25.20;99.90
44117;DHT22;29781;49.480;8.512;2023-07-29T11:17:48;25.00;99.90
44117;DHT22;29781;49.480;8.512;2023-07-29T11:20:15;25.20;99.90
44117;DHT22;29781;49.480;8.512;2023-07-29T11:22:41;25.30;99.90
44117;DHT22;29781;49.480;8.512;2023-07-29T11:25:09;25.50;99.90
44117;DHT22;29781;49.480;8.512;2023-07-29T11:27:36;25.90;99.90
44117;DHT22;29781;49.480;8.512;2023-07-29T11:30:04;26.10;99.90
44117;DHT22;29781;49.480;8.512;2023-07-29T11:32:35;26.10;99.90
44117;DHT22;29781;49.480;8.512;2023-07-29T11:35:12;26.40;99.90
44117;DHT22;29781;49.480;8.512;2023-07-29T11:37:39;26.20;99.90
44117;DHT22;29781;49.480;8.512;2023-07-29T11:40:06;26.20;99.90
44117;DHT22;29781;49.480;8.512;2023-07-29T11:42:33;26.20;99.90
44117;DHT22;29781;49.480;8.512;2023-07-29T11:44:59;26.30;99.90
44117;DHT22;29781;49.480;8.512;2023-07-29T11:47:25;26.10;99.90
44117;DHT22;29781;49.480;8.512;2023-07-29T11:49:51;26.10;99.90
44117;DHT22;29781;49.480;8.512;2023-07-29T11:52:18;25.90;99.90
44117;DHT22;29781;49.480;8.512;2023-07-29T11:54:46;25.90;99.90
44117;DHT22;29781;49.480;8.512;2023-07-29T11:57:12;25.80;99.90
44117;DHT22;29781;49.480;8.512;2023-07-29T11:59:39;25.80;99.90
44117;DHT22;29781;49.480;8.512;2023-07-29T12:02:08;25.70;99.90
44117;DHT22;29781;49.480;8.512;2023-07-29T12:04:35;25.70;99.90
44117;DHT22;29781;49.480;8.512;2023-07-29T12:07:01;25.70;99.90
44117;DHT22;29781;49.480;8.512;2023-07-29T12:09:27;25.70;99.90
44117;DHT22;29781;49.480;8.512;2023-07-29T12:11:54;25.70;99.90
44117;DHT22;29781;49.480;8.512;2023-07-29T12:14:19;25.70;99.90
44117;DHT22;29781;49.480;8.512;2023-07-29T12:16:48;25.70;99.90
44117;DHT22;29781;49.480;8.512;2023-07-29T12:19:15;25.70;99.90
44117;DHT22;29781;49.480;8.512;2023-07-29T12:21:42;25.60;99.90
44117;DHT22;29781;49.480;8.512;2023-07-29T12:24:07;25.60;99.90
44117;DHT22;29781;49.480;8.512;2023-07-29T12:26:33;25.70;99.90
44117;DHT22;29781;49.480;8.512;2023-07-29T12:29:17;25.80;99.90
44117;DHT22;29781;49.480;8.512;2023-07-29T12:31:45;25.90;99.90
44117;DHT22;29781;49.480;8.512;2023-07-29T12:34:18;25.90;99.90
44117;DHT22;29781;49.480;8.512;2023-07-29T12:36:49;25.90;99.90
44117;DHT22;29781;49.480;8.512;2023-07-29T12:39:23;25.90;99.90
44117;DHT22;29781;49.480;8.512;2023-07-29T12:41:50;25.90;99.90
44117;DHT22;29781;49.480;8.512;2023-07-29T12:44:15;25.90;99.90
44117;DHT22;29781;49.480;8.512;2023-07-29T12:46:41;26.00;99.90
44117;DHT22;29781;49.480;8.512;2023-07-29T12:49:07;26.10;99.90
44117;DHT22;29781;49.480;8.512;2023-07-29T12:51:33;26.10;99.90
44117;DHT22;29781;49.480;8.512;2023-07-29T12:53:59;26.00;99.90
44117;DHT22;29781;49.480;8.512;2023-07-29T12:56:25;26.10;99.90
44117;DHT22;29781;49.480;8.512;2023-07-29T12:58:51;26.10;99.90
44117;DHT22;29781;49.480;8.512;2023-07-29T13:01:17;26.10;99.90
44117;DHT22;29781;49.480;8.512;2023-07-29T13:03:47;26.00;99.90
44117;DHT22;29781;49.480;8.512;2023-07-29T13:06:13;25.90;99.90
44117;DHT22;29781;49.480;8.512;2023-07-29T13:08:39;25.90;99.90
44117;DHT22;29781;49.480;8.512;2023-07-29T13:11:04;25.90;99.90
44117;DHT22;29781;49.480;8.512;2023-07-29T13:13:31;25.90;99.90
44117;DHT22;29781;49.480;8.512;2023-07-29T13:15:57;25.90;99.90
44117;DHT22;29781;49.480;8.512;2023-07-29T13:18:22;26.00;99.90
44117;DHT22;29781;49.480;8.512;2023-07-29T13:20:48;26.00;99.90
44117;DHT22;29781;49.480;8.512;2023-07-29T13:23:15;26.10;99.90
44117;DHT22;29781;49.480;8.512;2023-07-29T13:25:41;26.10;99.90
44117;DHT22;29781;49.480;8.512;2023-07-29T13:28:07;26.10;99.90
44117;DHT22;29781;49.480;8.512;2023-07-29T13:30:32;26.10;99.90
44117;DHT22;29781;49.480;8.512;2023-07-29T13:32:58;25.90;99.90
44117;DHT22;29781;49.480;8.512;2023-07-29T13:35:24;25.80;99.90
44117;DHT22;29781;49.480;8.512;2023-07-29T13:37:49;25.70;99.90
44117;DHT22;29781;49.480;8.512;2023-07-29T13:40:15;25.80;99.90
44117;DHT22;29781;49.480;8.512;2023-07-29T13:42:40;25.90;99.90
44117;DHT22;29781;49.480;8.512;2023-07-29T13:45:06;26.00;99.90
44117;DHT22;29781;49.480;8.512;2023-07-29T13:47:32;26.00;99.90
44117;DHT22;29781;49.480;8.512;2023-07-29T13:49:57;25.90;99.90
44117;DHT22;29781;49.480;8.512;2023-07-29T13:52:23;25.70;99.90
44117;DHT22;29781;49.480;8.512;2023-07-29T13:54:48;25.60;99.90
44117;DHT22;29781;49.480;8.512;2023-07-29T13:57:14;25.50;99.90
44117;DHT22;29781;49.480;8.512;2023-07-29T13:59:39;25.50;99.90
44117;DHT22;29781;49.480;8.512;2023-07-29T14:02:05;25.60;99.90
44117;DHT22;29781;49.480;8.512;2023-07-29T14:04:32;25.70;99.90
44117;DHT22;29781;49.480;8.512;2023-07-29T14:06:58;25.90;99.90
44117;DHT22;29781;49.480;8.512;2023-07-29T14:09:24;26.00;99.90
44117;DHT22;29781;49.480;8.512;2023-07-29T14:11:50;26.10;99.90
44117;DHT22;29781;49.480;8.512;2023-07-29T14:14:15;26.00;99.90
44117;DHT22;29781;49.480;8.512;2023-07-29T14:16:41;26.00;99.90
44117;DHT22;29781;49.480;8.512;2023-07-29T14:19:07;26.00;99.90
44117;DHT22;29781;49.480;8.512;2023-07-29T14:21:32;26.10;99.90
44117;DHT22;29781;49.480;8.512;2023-07-29T14:23:58;26.00;99.90
44117;DHT22;29781;49.480;8.512;2023-07-29T14:26:24;25.90;99.90
44117;DHT22;29781;49.480;8.512;2023-07-29T14:28:49;25.90;99.90
44117;DHT22;29781;49.480;8.512;2023-07-29T14:31:16;25.80;99.90
44117;DHT22;29781;49.480;8.512;2023-07-29T14:33:42;25.80;99.90
44117;DHT22;29781;49.480;8.512;2023-07-29T14:36:08;25.70;99.90
44117;DHT22;29781;49.480;8.512;2023-07-29T14:38:34;25.60;99.90
44117;DHT22;29781;49.480;8.512;2023-07-29T14:41:00;25.60;99.90
44117;DHT22;29781;49.480;8.512;2023-07-29T14:43:25;25.70;99.90
44117;DHT22;29781;49.480;8.512;2023-07-29T14:45:51;25.80;99.90
44117;DHT22;29781;49.480;8.512;2023-07-29T14:48:17;25.80;99.90
44117;DHT22;29781;49.480;8.512;2023-07-29T14:50:42;25.80;99.90
44117;DHT22;29781;49.480;8.512;2023-07-29T14:53:09;25.70;99.90
44117;DHT22;29781;49.480;8.512;2023-07-29T14:55:36;25.70;99.90
44117;DHT22;29781;49.480;8.512;2023-07-29T14:58:02;25.70;99.90
44117;DHT22;29781;49.480;8.512;2023-07-29T15:00:27;25.70;99.90
44117;DHT22;29781;49.480;8.512;2023-07-29T15:02:53;25.80;99.90
44117;DHT22;29781;49.480;8.512;2023-07-29T15:05:18;25.90;99.90
44117;DHT22;29781;49.480;8.512;2023-07-29T15:07:44;25.90;99.90
44117;DHT22;29781;49.480;8.512;2023-07-29T15:10:09;25.90;99.90
44117;DHT22;29781;49.480;8.512;2023-07-29T15:12:35;25.90;99.90
44117;DHT22;29781;49.480;8.512;2023-07-29T15:15:01;25.80;99.90
44117;DHT22;29781;49.480;8.512;2023-07-29T15:17:26;25.90;99.90
44117;DHT22;29781;49.480;8.512;2023-07-29T15:19:52;25.90;99.90
44117;DHT22;29781;49.480;8.512;2023-07-29T15:22:18;26.00;99.90
44117;DHT22;29781;49.480;8.512;2023-07-29T15:24:43;25.90;99.90
44117;DHT22;29781;49.480;8.512;2023-07-29T15:27:10;25.90;99.90
44117;DHT22;29781;49.480;8.512;2023-07-29T15:29:35;25.80;99.90
44117;DHT22;29781;49.480;8.512;2023-07-29T15:32:01;25.80;99.90
44117;DHT22;29781;49.480;8.512;2023-07-29T15:34:27;25.80;99.90
44117;DHT22;29781;49.480;8.512;2023-07-29T15:36:57;25.80;99.90
44117;DHT22;29781;49.480;8.512;2023-07-29T15:39:22;25.80;99.90
44117;DHT22;29781;49.480;8.512;2023-07-29T15:41:48;25.70;99.90